Temperatur und Luftfeuchte: Die letzten 100 Werte

Nummer Datum Zeit Sensor Temp Celsius Gef├╝hlte Temp Luftfeuchte in %
9718 2019-06-16 15:11:43 ESP12E-S1 23.80 23.83 61.00
9717 2019-06-16 14:43:24 ESP12E-S1 24.30 24.39 61.30
9716 2019-06-16 14:15:01 ESP12E-S1 22.10 22.19 69.80
9715 2019-06-16 13:46:36 ESP12E-S1 22.00 22.17 73.40
9714 2019-06-16 13:18:29 ESP12E-S1 23.10 23.25 68.50
9713 2019-06-16 12:50:16 ESP12E-S1 23.40 23.64 70.70
9712 2019-06-16 12:21:39 ESP12E-S1 21.30 21.61 81.40
9711 2019-06-16 11:53:23 ESP12E-S1 21.50 21.79 80.00
9710 2019-06-16 11:24:58 ESP12E-S1 19.90 20.23 87.60
9709 2019-06-16 10:56:31 ESP12E-S1 18.70 19.06 93.10
9708 2019-06-16 10:28:12 ESP12E-S1 18.40 18.76 94.30
9707 2019-06-16 09:59:49 ESP12E-S1 17.90 18.25 95.90
9706 2019-06-16 09:31:27 ESP12E-S1 17.30 17.57 95.00
9705 2019-06-16 09:03:07 ESP12E-S1 16.90 17.10 94.00
9704 2019-06-16 08:34:55 ESP12E-S1 16.60 16.80 95.00
9703 2019-06-16 08:06:36 ESP12E-S1 16.60 16.80 95.00
9702 2019-06-16 07:38:18 ESP12E-S1 16.60 16.78 94.50
9701 2019-06-16 07:10:02 ESP12E-S1 16.60 16.80 95.00
9700 2019-06-16 06:41:44 ESP12E-S1 16.80 17.00 94.20
9699 2019-06-16 06:13:28 ESP12E-S1 17.20 17.38 92.00
9698 2019-06-16 05:45:12 ESP12E-S1 17.50 17.64 89.60
9697 2019-06-16 05:16:55 ESP12E-S1 17.90 17.95 84.30
9696 2019-06-16 04:48:39 ESP12E-S1 18.10 18.03 79.10
9695 2019-06-16 04:20:23 ESP12E-S1 18.60 18.35 70.40
9694 2019-06-16 03:52:07 ESP12E-S1 18.70 18.42 68.70
9693 2019-06-16 03:23:49 ESP12E-S1 18.80 18.50 67.70
9692 2019-06-16 02:55:32 ESP12E-S1 18.80 18.50 67.60
9691 2019-06-16 02:27:17 ESP12E-S1 18.90 18.58 66.40
9690 2019-06-16 01:59:00 ESP12E-S1 18.90 18.56 65.70
9689 2019-06-16 01:30:43 ESP12E-S1 19.00 18.67 65.80
9688 2019-06-16 01:02:24 ESP12E-S1 19.00 18.65 65.00
9687 2019-06-16 00:34:07 ESP12E-S1 19.00 18.68 65.90
9686 2019-06-16 00:05:47 ESP12E-S1 18.80 18.53 68.80
9685 2019-06-15 23:37:33 ESP12E-S1 18.90 18.63 68.50
9684 2019-06-15 23:09:18 ESP12E-S1 19.40 19.15 67.30
9683 2019-06-15 22:41:03 ESP12E-S1 19.70 19.47 66.70
9682 2019-06-15 22:12:48 ESP12E-S1 20.20 19.93 63.50
9681 2019-06-15 21:44:45 ESP12E-S1 21.00 20.77 61.90
9680 2019-06-15 21:16:25 ESP12E-S1 21.50 21.31 61.60
9679 2019-06-15 20:48:09 ESP12E-S1 22.10 21.90 58.90
9678 2019-06-15 20:19:55 ESP12E-S1 22.70 22.51 57.00
9677 2019-06-15 19:51:40 ESP12E-S1 23.40 23.21 54.30
9676 2019-06-15 19:23:26 ESP12E-S1 23.80 23.69 55.60
9675 2019-06-15 18:55:10 ESP12E-S1 24.40 24.31 54.00
9674 2019-06-15 18:26:55 ESP12E-S1 24.90 24.88 55.00
9673 2019-06-15 17:58:38 ESP12E-S1 25.40 25.42 54.60
9672 2019-06-15 17:30:20 ESP12E-S1 25.50 25.56 55.60
9671 2019-06-15 17:02:00 ESP12E-S1 25.40 25.41 54.00
9670 2019-06-15 16:33:39 ESP12E-S1 25.00 25.06 57.50
9669 2019-06-15 16:05:31 ESP12E-S1 25.60 25.65 54.80
9668 2019-06-15 15:37:31 ESP12E-S1 27.10 27.69 52.80
9667 2019-06-15 15:08:54 ESP12E-S1 25.50 25.58 56.50
9666 2019-06-15 14:40:22 ESP12E-S1 23.70 23.69 60.00
9665 2019-06-15 14:12:14 ESP12E-S1 24.70 24.73 57.50
9664 2019-06-15 13:44:22 ESP12E-S1 27.10 27.71 53.10
9663 2019-06-15 13:15:56 ESP12E-S1 27.90 28.61 53.10
9662 2019-06-15 12:47:36 ESP12E-S1 24.80 24.95 61.70
9661 2019-06-15 12:19:22 ESP12E-S1 23.40 23.52 66.00
9660 2019-06-15 11:51:06 ESP12E-S1 23.00 23.15 68.60
9659 2019-06-15 11:22:47 ESP12E-S1 22.40 22.56 71.50
9658 2019-06-15 10:54:39 ESP12E-S1 22.50 22.74 74.10
9657 2019-06-15 10:26:13 ESP12E-S1 21.40 21.59 76.30
9656 2019-06-15 09:58:05 ESP12E-S1 20.90 21.27 85.20
9655 2019-06-15 09:29:43 ESP12E-S1 20.80 21.11 83.10
9654 2019-06-15 09:01:28 ESP12E-S1 19.70 20.05 89.10
9653 2019-06-15 08:33:00 ESP12E-S1 18.60 18.89 91.10
9652 2019-06-15 08:04:52 ESP12E-S1 18.20 18.47 91.80
9651 2019-06-15 07:36:25 ESP12E-S1 17.60 17.82 92.20
9650 2019-06-15 07:08:05 ESP12E-S1 17.20 17.39 92.60
9649 2019-06-15 06:39:46 ESP12E-S1 17.00 17.14 91.50
9648 2019-06-15 06:11:41 ESP12E-S1 17.00 17.12 90.60
9647 2019-06-15 05:43:19 ESP12E-S1 16.90 16.99 89.80
9646 2019-06-15 05:15:02 ESP12E-S1 17.00 16.99 85.70
9645 2019-06-15 04:46:45 ESP12E-S1 17.10 17.08 85.00
9644 2019-06-15 04:18:32 ESP12E-S1 17.20 17.20 85.10
9643 2019-06-15 03:50:16 ESP12E-S1 17.30 17.29 84.30
9642 2019-06-15 03:22:01 ESP12E-S1 17.70 17.68 82.70
9641 2019-06-15 02:53:45 ESP12E-S1 17.90 17.88 81.70
9640 2019-06-15 02:25:30 ESP12E-S1 18.10 18.06 80.30
9639 2019-06-15 01:57:12 ESP12E-S1 18.40 18.36 79.00
9638 2019-06-15 01:28:56 ESP12E-S1 18.50 18.52 80.90
9637 2019-06-15 01:00:50 ESP12E-S1 18.60 18.64 81.50
9636 2019-06-15 00:32:29 ESP12E-S1 18.70 18.83 84.60
9635 2019-06-15 00:04:23 ESP12E-S1 18.70 18.84 84.90
9634 2019-06-14 23:36:03 ESP12E-S1 18.80 18.95 84.90
9633 2019-06-14 23:07:46 ESP12E-S1 18.90 19.00 82.60
9632 2019-06-14 22:39:29 ESP12E-S1 19.20 19.26 80.00
9631 2019-06-14 22:11:16 ESP12E-S1 19.60 19.64 77.50
9630 2019-06-14 21:42:59 ESP12E-S1 20.00 20.03 75.50
9629 2019-06-14 21:14:44 ESP12E-S1 20.50 20.52 73.50
9628 2019-06-14 20:46:39 ESP12E-S1 20.90 20.90 71.00
9627 2019-06-14 20:18:19 ESP12E-S1 21.10 21.09 70.00
9626 2019-06-14 19:50:14 ESP12E-S1 21.50 21.42 65.50
9625 2019-06-14 19:21:54 ESP12E-S1 21.80 21.75 65.60
9624 2019-06-14 18:53:49 ESP12E-S1 22.30 22.16 60.40
9623 2019-06-14 18:25:38 ESP12E-S1 22.80 22.64 57.50
9622 2019-06-14 17:57:31 ESP12E-S1 23.30 23.22 58.60
9621 2019-06-14 17:29:10 ESP12E-S1 23.70 23.66 58.90
9620 2019-06-14 17:00:53 ESP12E-S1 24.00 24.06 61.40
9619 2019-06-14 16:32:38 ESP12E-S1 24.50 24.60 61.00